createdAt,value
2018-08-10T00:04:58.033Z,0
2018-08-10T00:09:58.079Z,0
2018-08-10T00:14:57.994Z,0
2018-08-10T00:19:58.063Z,0
2018-08-10T00:24:58.070Z,0
2018-08-10T00:29:57.807Z,0
2018-08-10T00:34:57.823Z,0
2018-08-10T00:39:58.123Z,0
2018-08-10T00:44:58.087Z,0
2018-08-10T00:49:57.729Z,0
2018-08-10T00:54:57.717Z,0
2018-08-10T00:59:57.728Z,0
2018-08-10T01:04:58.040Z,0
2018-08-10T01:09:57.794Z,0
2018-08-10T01:14:57.707Z,0
2018-08-10T01:19:57.939Z,0
2018-08-10T01:24:57.977Z,0
2018-08-10T01:29:57.739Z,0
2018-08-10T01:34:57.784Z,0
2018-08-10T01:39:57.742Z,0
2018-08-10T01:44:57.719Z,0
2018-08-10T01:49:57.794Z,0
2018-08-10T01:54:57.692Z,0
2018-08-10T01:59:57.725Z,0
2018-08-10T02:04:57.918Z,0
2018-08-10T02:09:57.936Z,0
2018-08-10T02:14:57.579Z,0
2018-08-10T02:19:57.924Z,0
2018-08-10T02:24:57.752Z,0
2018-08-10T02:29:57.574Z,0
2018-08-10T02:34:57.626Z,0
2018-08-10T02:39:57.676Z,0
2018-08-10T02:44:57.865Z,0
2018-08-10T02:49:57.691Z,0
2018-08-10T02:54:57.607Z,0
2018-08-10T02:59:57.777Z,0
2018-08-10T03:04:57.939Z,0
2018-08-10T03:09:57.763Z,0
2018-08-10T03:14:57.681Z,0
2018-08-10T03:19:57.593Z,0
2018-08-10T03:24:57.599Z,0
2018-08-10T03:29:57.797Z,0
2018-08-10T03:34:57.448Z,0
2018-08-10T03:39:57.576Z,0
2018-08-10T03:44:57.673Z,0
2018-08-10T03:49:57.556Z,0
2018-08-10T03:54:57.658Z,0
2018-08-10T03:59:57.521Z,0
2018-08-10T04:04:57.543Z,0
2018-08-10T04:09:57.667Z,0.8
2018-08-10T04:14:57.543Z,1.7
2018-08-10T04:19:57.562Z,3.3
2018-08-10T04:24:57.743Z,5
2018-08-10T04:29:57.401Z,6.7
2018-08-10T04:34:57.349Z,8.3
2018-08-10T04:39:57.525Z,12.5
2018-08-10T04:44:57.658Z,16.7
2018-08-10T04:49:57.594Z,16.7
2018-08-10T04:54:57.768Z,20.8
2018-08-10T04:59:57.616Z,19.2
2018-08-10T05:04:57.316Z,22.5
2018-08-10T05:09:57.413Z,25
2018-08-10T05:14:57.408Z,27.5
2018-08-10T05:19:57.434Z,30.8
2018-08-10T05:24:57.328Z,32.5
2018-08-10T05:29:57.355Z,35.8
2018-08-10T05:34:57.419Z,40.8
2018-08-10T05:39:57.401Z,43.3
2018-08-10T05:44:57.630Z,46.7
2018-08-10T05:49:57.358Z,50.8
2018-08-10T05:54:57.254Z,68.3
2018-08-10T05:59:57.377Z,80
2018-08-10T06:04:57.253Z,65
2018-08-10T06:09:57.295Z,80
2018-08-10T06:14:57.455Z,74.2
2018-08-10T06:19:57.497Z,94.2
2018-08-10T06:24:57.499Z,90
2018-08-10T06:29:57.449Z,101.7
2018-08-10T06:34:57.432Z,132.5
2018-08-10T06:39:57.482Z,125.8
2018-08-10T06:44:57.371Z,99.2
2018-08-10T06:49:57.229Z,119.2
2018-08-10T06:54:57.366Z,196.7
2018-08-10T06:59:57.493Z,183.3
2018-08-10T07:04:57.579Z,159.2
2018-08-10T07:09:57.287Z,100.8
2018-08-10T07:14:57.297Z,94.2
2018-08-10T07:19:57.153Z,93.3
2018-08-10T07:24:57.368Z,95
2018-08-10T07:29:57.460Z,91.7
2018-08-10T07:34:57.259Z,95.8
2018-08-10T07:39:57.132Z,101.7
2018-08-10T07:44:57.169Z,137.5
2018-08-10T07:49:57.389Z,96.7
2018-08-10T07:54:57.419Z,95
2018-08-10T07:59:57.146Z,93.3
2018-08-10T08:04:57.067Z,96.7
2018-08-10T08:09:57.372Z,105
2018-08-10T08:14:57.099Z,111.7
2018-08-10T08:19:57.459Z,115.8
2018-08-10T08:24:57.028Z,115.8
2018-08-10T08:29:57.332Z,160
2018-08-10T08:34:57.069Z,140.8
2018-08-10T08:39:57.367Z,127.5
2018-08-10T08:44:57.130Z,266.7
2018-08-10T08:49:57.283Z,230.8
2018-08-10T08:54:57.223Z,238.3
2018-08-10T08:59:57.191Z,352.5
2018-08-10T09:04:57.367Z,231.7
2018-08-10T09:09:57.285Z,255
2018-08-10T09:14:57.061Z,270
2018-08-10T09:19:57.190Z,270.8
2018-08-10T09:24:57.031Z,233.3
2018-08-10T09:29:56.954Z,321.7
2018-08-10T09:34:57.157Z,217.5
2018-08-10T09:39:57.032Z,386.7
2018-08-10T09:44:57.211Z,457.5
2018-08-10T09:49:57.142Z,421.7
2018-08-10T09:54:57.045Z,400
2018-08-10T09:59:57.213Z,459.2
2018-08-10T10:04:57.052Z,293.3
2018-08-10T10:09:57.098Z,495
2018-08-10T10:14:56.903Z,129.2
2018-08-10T10:19:57.222Z,106.7
2018-08-10T10:24:56.862Z,452.5
2018-08-10T10:29:56.935Z,490.8
2018-08-10T10:34:56.927Z,235
2018-08-10T10:39:57.069Z,640.8
2018-08-10T10:44:56.926Z,519.2
2018-08-10T10:49:57.052Z,127.5
2018-08-10T10:54:56.821Z,426.7
2018-08-10T10:59:56.879Z,632.5
2018-08-10T11:04:56.861Z,445.8
2018-08-10T11:09:58.989Z,215
2018-08-10T11:14:57.169Z,210
2018-08-10T11:19:57.000Z,595.8
2018-08-10T11:24:57.077Z,723.3
2018-08-10T11:29:57.170Z,721.7
2018-08-10T11:34:56.957Z,331.7
2018-08-10T11:39:57.082Z,843.3
2018-08-10T11:44:56.883Z,143.3
2018-08-10T11:49:56.835Z,820.8
2018-08-10T11:54:56.757Z,857.5
2018-08-10T11:59:56.839Z,812.5
2018-08-10T12:04:56.811Z,475.8
2018-08-10T12:09:56.729Z,765
2018-08-10T12:14:56.958Z,793.3
2018-08-10T12:19:56.776Z,860
2018-08-10T12:24:57.026Z,890
2018-08-10T12:29:56.744Z,768.3
2018-08-10T12:34:57.098Z,255
2018-08-10T12:39:56.948Z,230.8
2018-08-10T12:44:56.894Z,175.8
2018-08-10T12:49:56.756Z,166.7
2018-08-10T12:54:56.747Z,875
2018-08-10T12:59:56.919Z,109.2
2018-08-10T13:04:56.751Z,164.2
2018-08-10T13:09:56.818Z,187.5
2018-08-10T13:14:56.945Z,240
2018-08-10T13:19:56.815Z,278.3
2018-08-10T13:24:56.627Z,236.7
2018-08-10T13:29:56.555Z,1071.7
2018-08-10T13:34:56.792Z,281.7
2018-08-10T13:39:56.534Z,1079.2
2018-08-10T13:44:56.656Z,1050.8
2018-08-10T13:49:56.528Z,1045
2018-08-10T13:54:56.843Z,1054.2
2018-08-10T13:59:56.729Z,370
2018-08-10T14:04:56.555Z,97.5
2018-08-10T14:09:56.751Z,43.3
2018-08-10T14:14:56.719Z,32.5
2018-08-10T14:19:56.680Z,31.7
2018-08-10T14:24:56.495Z,70.8
2018-08-10T14:29:56.578Z,130
2018-08-10T14:34:56.639Z,156.7
2018-08-10T14:39:56.787Z,175
2018-08-10T14:44:56.601Z,147.5
2018-08-10T14:49:56.653Z,245
2018-08-10T14:54:56.602Z,1486.7
2018-08-10T14:59:56.489Z,1273.3
2018-08-10T15:04:56.659Z,1194.2
2018-08-10T15:09:56.705Z,1173.3
2018-08-10T15:14:56.703Z,1155.8
2018-08-10T15:19:56.695Z,949.2
2018-08-10T15:24:56.667Z,1080
2018-08-10T15:29:56.633Z,1113.3
2018-08-10T15:34:56.535Z,1056.7
2018-08-10T15:39:56.566Z,1027.5
2018-08-10T15:44:56.523Z,934.2
2018-08-10T15:49:56.462Z,861.7
2018-08-10T15:54:56.703Z,644.2
2018-08-10T15:59:56.557Z,715
2018-08-10T16:04:56.585Z,168.3
2018-08-10T16:09:56.377Z,536.7
2018-08-10T16:14:56.453Z,182.5
2018-08-10T16:19:56.396Z,229.2
2018-08-10T16:24:56.654Z,251.7
2018-08-10T16:29:56.426Z,136.7
2018-08-10T16:34:56.396Z,110.8
2018-08-10T16:39:56.655Z,95
2018-08-10T16:44:56.319Z,119.2
2018-08-10T16:49:56.631Z,176.7
2018-08-10T16:54:56.272Z,191.7
2018-08-10T16:59:56.596Z,140
2018-08-10T17:04:56.369Z,121.7
2018-08-10T17:09:56.412Z,53.3
2018-08-10T17:14:56.566Z,45.8
2018-08-10T17:19:56.243Z,23.3
2018-08-10T17:24:56.430Z,19.2
2018-08-10T17:29:56.207Z,16.7
2018-08-10T17:34:56.517Z,13.3
2018-08-10T17:39:56.502Z,11.7
2018-08-10T17:44:56.339Z,16.7
2018-08-10T17:49:56.231Z,13.3
2018-08-10T17:54:56.276Z,15.8
2018-08-10T17:59:56.174Z,20
2018-08-10T18:04:56.395Z,15
2018-08-10T18:09:56.216Z,9.2
2018-08-10T18:14:56.241Z,3.3
2018-08-10T18:19:56.195Z,3.3
2018-08-10T18:24:56.165Z,3.3
2018-08-10T18:29:56.186Z,2.5
2018-08-10T18:34:56.431Z,1.7
2018-08-10T18:39:56.297Z,1.7
2018-08-10T18:44:56.436Z,2.5
2018-08-10T18:49:56.303Z,2.5
2018-08-10T18:54:56.330Z,1.7
2018-08-10T18:59:56.282Z,0
2018-08-10T19:04:56.311Z,0
2018-08-10T19:09:56.259Z,0
2018-08-10T19:14:56.168Z,0
2018-08-10T19:19:56.373Z,0
2018-08-10T19:24:56.031Z,0
2018-08-10T19:29:56.054Z,0
2018-08-10T19:34:56.319Z,0
2018-08-10T19:39:56.131Z,0
2018-08-10T19:44:56.040Z,0
2018-08-10T19:49:56.243Z,0
2018-08-10T19:54:56.248Z,0
2018-08-10T19:59:56.093Z,0
2018-08-10T20:04:55.969Z,0
2018-08-10T20:09:56.103Z,0
2018-08-10T20:14:56.204Z,0
2018-08-10T20:19:56.107Z,0
2018-08-10T20:24:56.036Z,0
2018-08-10T20:29:55.978Z,0
2018-08-10T20:34:56.171Z,0
2018-08-10T20:39:55.933Z,0
2018-08-10T20:44:56.124Z,0
2018-08-10T20:49:55.989Z,0
2018-08-10T20:54:56.308Z,0
2018-08-10T20:59:56.149Z,0
2018-08-10T21:04:56.237Z,0
2018-08-10T21:09:56.193Z,0
2018-08-10T21:14:56.111Z,0
2018-08-10T21:19:56.126Z,0
2018-08-10T21:24:55.855Z,0
2018-08-10T21:29:55.897Z,0
2018-08-10T21:34:56.070Z,0
2018-08-10T21:39:56.017Z,0
2018-08-10T21:44:56.211Z,0
2018-08-10T21:49:56.070Z,0
2018-08-10T21:54:56.176Z,0
2018-08-10T21:59:55.841Z,0
2018-08-10T22:04:56.140Z,0
2018-08-10T22:09:55.904Z,0
2018-08-10T22:14:56.086Z,0
2018-08-10T22:19:55.786Z,0
2018-08-10T22:24:55.808Z,0
2018-08-10T22:29:55.811Z,0
2018-08-10T22:34:55.890Z,0
2018-08-10T22:39:55.778Z,0
2018-08-10T22:44:55.804Z,0
2018-08-10T22:49:55.925Z,0
2018-08-10T22:54:55.777Z,0
2018-08-10T22:59:55.951Z,0
2018-08-10T23:04:55.804Z,0
2018-08-10T23:09:55.825Z,0
2018-08-10T23:14:55.988Z,0
2018-08-10T23:19:55.766Z,0
2018-08-10T23:24:55.676Z,0
2018-08-10T23:29:55.681Z,0
2018-08-10T23:34:55.813Z,0
2018-08-10T23:39:55.928Z,0
2018-08-10T23:44:55.832Z,0
2018-08-10T23:49:56.044Z,0
2018-08-10T23:54:55.894Z,0
2018-08-10T23:59:55.718Z,0
